YPR weather

Prince Rupert Airport
Prince Rupert, British Columbia, Canada

Public forecast

Using degrees Celsius for public forecast. Weather courtesy of forecast.io.

METAR (pilot weather report)

Retrieved 2019/07/16 07:00 UTC (40 minutes ago):

CYPR 160700Z AUTO 03003KT 9SM CLR 13/11 A3001 RMK SLP166

TAF (pilot weather forecast)

Retrieved 2019/07/16 07:42 UTC (0 seconds ago):

TAF CYPR 160639Z 1607/1619 VRB03KT P6SM FEW010 SCT030 FM161000 10005KT P6SM BKN030 TEMPO 1610/1616 BKN012 PROB30 1610/1616 1/2SM FG VV002 FM161600 14005KT P6SM -SHRA BKN020 OVC060 TEMPO 1616/1619 4SM -RA BR OVC006 RMK FCST BASED ON AUTO OBS. NXT FCST BY 161300Z